Time;durP1;ratioP1;P1;durP2;ratioP2;P2;SDS_P1;SDS_P2;PMS_P1;PMS_P2;Temp;Humidity;BMP_temperature;BMP_pressure;BME280_temperature;BME280_humidity;BME280_pressure;Samples;Min_cycle;Max_cycle;Signal;HPM_P1;HPM_P2
2021/07/04 00:00:15;;;;;;;7.40;5.55;;;19.10;80.20;;;18.18;77.31;95865.41;4983172;28;20062;-66
2021/07/04 00:02:41;;;;;;;6.00;5.40;;;19.10;80.10;;;18.17;75.76;95867.28;4992595;28;20068;-66
2021/07/04 00:05:09;;;;;;;9.15;5.53;;;19.10;79.70;;;18.16;75.83;95868.31;4963853;28;20037;-66
2021/07/04 00:07:35;;;;;;;7.60;6.07;;;19.10;79.80;;;18.13;75.75;95863.50;4982978;28;20060;-66
2021/07/04 00:10:03;;;;;;;6.50;5.78;;;19.00;79.90;;;18.10;75.78;95869.28;4987753;28;20498;-66
2021/07/04 00:12:28;;;;;;;9.02;7.03;;;19.00;80.20;;;18.04;76.19;95860.41;4961362;28;20062;-66
2021/07/04 00:14:54;;;;;;;9.23;6.97;;;18.80;80.90;;;18.02;75.68;95864.34;4960642;28;20034;-66
2021/07/04 00:17:20;;;;;;;8.60;7.03;;;18.80;81.20;;;17.99;76.30;95868.31;4986940;28;20094;-66
2021/07/04 00:19:46;;;;;;;9.00;6.72;;;18.80;81.40;;;17.95;76.88;95856.53;4966240;28;20079;-66
2021/07/04 00:22:11;;;;;;;11.13;8.00;;;18.70;81.50;;;17.92;76.75;95869.53;5010406;28;20077;-66
2021/07/04 00:24:37;;;;;;;9.00;7.72;;;18.70;82.00;;;17.87;76.74;95864.09;4998562;28;20041;-66
2021/07/04 00:27:03;;;;;;;9.70;7.88;;;18.60;82.40;;;17.81;76.93;95857.06;4961000;28;20174;-65
2021/07/04 00:29:29;;;;;;;12.27;7.60;;;18.50;82.60;;;17.77;77.33;95858.59;4983037;28;20065;-65
2021/07/04 00:31:54;;;;;;;9.13;8.13;;;18.50;82.90;;;17.75;78.07;95866.84;4953029;28;20038;-66
2021/07/04 00:34:20;;;;;;;14.70;7.95;;;18.50;83.00;;;17.72;78.21;95856.69;4945989;28;20540;-65
2021/07/04 00:36:46;;;;;;;10.77;8.35;;;18.50;83.40;;;17.72;77.92;95860.13;4959251;28;20506;-66
2021/07/04 00:39:12;;;;;;;9.70;8.50;;;18.60;83.20;;;17.74;78.08;95855.38;5007292;28;20355;-65
2021/07/04 00:41:37;;;;;;;10.35;8.23;;;18.60;82.90;;;17.73;78.44;95847.66;4983346;28;20042;-65
2021/07/04 00:44:03;;;;;;;11.27;8.15;;;18.60;82.90;;;17.68;77.75;95850.22;5012070;28;20129;-66
2021/07/04 00:46:31;;;;;;;10.88;8.10;;;18.50;83.30;;;17.62;78.16;95851.94;4975280;28;20023;-66
2021/07/04 00:48:58;;;;;;;12.32;8.80;;;18.50;83.50;;;17.60;79.00;95848.72;4973627;28;20037;-65
2021/07/04 00:51:24;;;;;;;12.57;9.68;;;18.50;83.60;;;17.57;78.71;95848.38;4980101;28;20528;-66
2021/07/04 00:53:50;;;;;;;11.13;8.90;;;18.40;83.70;;;17.55;78.84;95843.31;5006674;28;20049;-66
2021/07/04 00:56:15;;;;;;;12.20;8.73;;;18.40;83.60;;;17.51;78.59;95836.03;4967049;28;20413;-65
2021/07/04 00:58:41;;;;;;;12.57;9.50;;;18.30;84.00;;;17.52;79.20;95840.31;4965547;28;20054;-65
2021/07/04 01:01:07;;;;;;;11.02;8.55;;;18.30;83.90;;;17.49;79.38;95830.97;5004912;28;20160;-65
2021/07/04 01:03:32;;;;;;;10.23;8.70;;;18.40;84.00;;;17.49;79.17;95835.47;5001794;28;20038;-65
2021/07/04 01:05:58;;;;;;;10.95;9.40;;;18.40;83.90;;;17.47;79.36;95830.41;4999463;28;20068;-65
2021/07/04 01:08:24;;;;;;;10.65;9.30;;;18.30;84.20;;;17.47;79.66;95830.41;4972959;28;20076;-66
2021/07/04 01:10:50;;;;;;;12.07;9.15;;;18.30;84.30;;;17.44;79.38;95828.22;4995713;28;20034;-65
2021/07/04 01:13:16;;;;;;;11.57;8.73;;;18.30;84.30;;;17.41;79.38;95829.47;4988689;28;20647;-65
2021/07/04 01:15:43;;;;;;;12.07;9.15;;;18.30;84.30;;;17.43;79.78;95826.63;4988567;28;20041;-66
2021/07/04 01:18:09;;;;;;;12.82;8.90;;;18.30;84.20;;;17.35;79.70;95819.00;5002543;28;20037;-65
2021/07/04 01:20:35;;;;;;;9.95;8.80;;;18.20;84.60;;;17.34;79.92;95825.38;4986789;28;20026;-65
2021/07/04 01:23:09;;;;;;;12.55;9.38;;;18.10;84.70;;;17.30;82.28;95816.25;4984840;28;20061;-65
2021/07/04 01:25:40;;;;;;;10.82;9.10;;;18.10;84.70;;;17.24;80.91;95811.91;4992222;28;20041;-65
2021/07/04 01:28:06;;;;;;;10.50;9.23;;;18.10;84.90;;;17.25;80.84;95808.19;4980716;28;20390;-65
2021/07/04 01:30:32;;;;;;;12.00;8.85;;;18.10;84.80;;;17.21;80.89;95809.72;5006246;28;20050;-65
2021/07/04 01:32:58;;;;;;;11.60;9.10;;;18.10;85.10;;;17.21;80.14;95807.06;4982352;28;20045;-65
2021/07/04 01:35:24;;;;;;;10.23;8.57;;;18.10;84.90;;;17.21;80.62;95807.06;4987337;28;20054;-65
2021/07/04 01:37:50;;;;;;;10.07;8.25;;;18.10;84.60;;;17.20;80.91;95816.03;4982323;28;20041;-65
2021/07/04 01:40:16;;;;;;;11.18;8.02;;;18.10;84.90;;;17.18;80.73;95807.50;4987984;28;20053;-64
2021/07/04 01:42:43;;;;;;;9.20;8.25;;;18.10;84.70;;;17.18;80.59;95804.84;4981880;28;20042;-64
2021/07/04 01:45:10;;;;;;;9.70;8.20;;;18.10;84.40;;;17.17;80.60;95800.56;4970527;28;20029;-65
2021/07/04 01:47:40;;;;;;;9.43;7.72;;;18.10;84.10;;;17.18;81.57;95802.19;4986638;28;20030;-64
2021/07/04 01:50:08;;;;;;;8.85;7.80;;;18.10;84.00;;;17.17;80.39;95800.56;4973960;28;20022;-64
2021/07/04 01:52:34;;;;;;;9.50;8.50;;;18.10;84.20;;;17.13;80.96;95801.06;4969147;28;20034;-64
2021/07/04 01:55:00;;;;;;;9.20;8.30;;;18.00;84.50;;;17.13;80.27;95801.06;4983013;28;20038;-64
2021/07/04 01:57:26;;;;;;;9.50;8.27;;;18.10;84.30;;;17.13;80.82;95806.38;4986897;28;20029;-65
2021/07/04 01:59:53;;;;;;;11.63;8.02;;;18.00;84.30;;;17.13;80.62;95801.06;4986196;28;20478;-65
2021/07/04 02:02:19;;;;;;;8.90;8.00;;;18.10;84.20;;;17.14;80.95;95801.88;4966579;28;20101;-65
2021/07/04 02:04:45;;;;;;;8.88;7.97;;;18.10;84.00;;;17.11;80.12;95792.50;4965268;28;20336;-65
2021/07/04 02:07:18;;;;;;;8.77;7.07;;;18.00;83.90;;;17.11;81.09;95792.50;4983172;28;20030;-65
2021/07/04 02:09:48;;;;;;;8.05;7.25;;;18.10;83.80;;;17.12;80.74;95793.31;4969940;28;20471;-65
2021/07/04 02:12:14;;;;;;;9.48;7.38;;;18.10;83.70;;;17.14;79.86;95791.22;4967125;28;20513;-63
2021/07/04 02:14:40;;;;;;;9.55;7.15;;;18.10;83.30;;;17.14;79.99;95791.22;4992338;28;20037;-64
2021/07/04 02:17:06;;;;;;;9.32;7.00;;;18.10;83.20;;;17.13;79.59;95785.09;4978022;28;20035;-65
2021/07/04 02:19:36;;;;;;;7.28;6.30;;;18.10;83.20;;;17.14;80.46;95781.41;4967833;28;20177;-64
2021/07/04 02:22:03;;;;;;;7.17;6.20;;;18.10;83.20;;;17.14;79.65;95776.09;4948553;28;20065;-64
2021/07/04 02:24:28;;;;;;;8.82;6.80;;;18.20;83.10;;;17.19;79.75;95774.56;4967094;28;20297;-65
2021/07/04 02:26:54;;;;;;;7.75;6.45;;;18.20;83.20;;;17.20;79.67;95781.50;4970851;28;20033;-64
2021/07/04 02:29:20;;;;;;;8.98;6.50;;;18.30;83.00;;;17.22;80.59;95777.59;4968973;28;20049;-64
2021/07/04 02:31:46;;;;;;;8.52;6.32;;;18.40;82.90;;;17.24;80.02;95780.81;4965664;28;20050;-65
2021/07/04 02:34:12;;;;;;;7.88;6.07;;;18.40;82.90;;;17.28;79.96;95781.94;4986688;28;20133;-65
2021/07/04 02:36:38;;;;;;;7.22;6.03;;;18.40;82.90;;;17.31;80.88;95784.13;4967639;28;20034;-67
2021/07/04 02:39:04;;;;;;;7.68;6.68;;;18.50;82.80;;;17.34;79.84;95782.81;5003768;28;20575;-65
2021/07/04 02:41:30;;;;;;;8.15;5.90;;;18.50;82.50;;;17.35;80.46;95779.94;4985339;28;20072;-65
2021/07/04 02:43:56;;;;;;;9.20;6.05;;;18.50;82.20;;;17.39;80.26;95788.22;4980393;28;20513;-64
2021/07/04 02:46:21;;;;;;;7.13;6.05;;;18.60;82.20;;;17.40;79.63;95784.53;4988349;28;20120;-64
2021/07/04 02:48:47;;;;;;;10.73;6.55;;;18.60;82.10;;;17.43;79.99;95786.72;5005218;28;20034;-64
2021/07/04 02:51:13;;;;;;;9.00;5.60;;;18.60;82.00;;;17.44;79.93;95786.50;4987779;28;20077;-64
2021/07/04 02:53:38;;;;;;;9.20;6.20;;;18.60;81.60;;;17.46;79.71;95791.56;4992249;28;20058;-64
2021/07/04 02:56:04;;;;;;;8.20;5.90;;;18.60;81.60;;;17.45;79.15;95797.94;4988524;28;20034;-65
2021/07/04 02:58:30;;;;;;;9.45;5.22;;;18.70;81.30;;;17.44;79.19;95788.34;4986169;28;20073;-64
2021/07/04 03:00:56;;;;;;;6.70;6.00;;;18.60;80.50;;;17.45;79.04;95784.63;4954938;28;20580;-64
2021/07/04 03:03:21;;;;;;;6.30;5.32;;;18.60;80.80;;;17.43;79.25;95784.06;4985052;28;20529;-65
2021/07/04 03:05:47;;;;;;;6.93;5.53;;;18.60;80.80;;;17.43;79.33;95784.06;4997822;28;20026;-65
2021/07/04 03:08:13;;;;;;;6.32;5.18;;;18.60;81.00;;;17.41;79.36;95791.44;4971332;28;20037;-65
2021/07/04 03:10:39;;;;;;;6.25;5.22;;;18.60;80.60;;;17.42;79.47;95788.56;4986979;28;20076;-65
2021/07/04 03:13:04;;;;;;;5.43;4.90;;;18.60;80.80;;;17.41;79.45;95792.25;4964961;28;20030;-64
2021/07/04 03:15:30;;;;;;;9.15;5.40;;;18.70;80.60;;;17.43;79.04;95789.38;4987163;28;20125;-64
2021/07/04 03:17:56;;;;;;;6.95;5.32;;;18.60;80.70;;;17.44;79.23;95785.69;5004843;28;20029;-65
2021/07/04 03:20:21;;;;;;;7.57;5.65;;;18.70;81.10;;;17.47;79.25;95779.88;4986992;28;20066;-65
2021/07/04 03:22:47;;;;;;;7.55;5.15;;;18.70;81.00;;;17.49;79.12;95782.31;4967808;28;20125;-65
2021/07/04 03:25:14;;;;;;;7.50;6.15;;;18.70;81.00;;;17.48;79.08;95788.66;4991476;28;20438;-65
2021/07/04 03:27:40;;;;;;;11.45;6.68;;;18.70;81.30;;;17.47;79.01;95784.41;4989913;28;20121;-65
2021/07/04 03:30:10;;;;;;;8.35;6.20;;;18.70;81.40;;;17.46;79.55;95783.59;4960920;28;20034;-65
2021/07/04 03:32:36;;;;;;;7.07;5.82;;;18.70;81.50;;;17.46;79.59;95783.59;4990240;28;20046;-65
2021/07/04 03:35:04;;;;;;;9.52;6.28;;;18.70;81.60;;;17.45;79.40;95779.31;5003525;28;20133;-66
2021/07/04 03:37:30;;;;;;;8.52;6.28;;;18.70;81.60;;;17.46;79.86;95783.59;4999820;28;20061;-65
2021/07/04 03:39:56;;;;;;;14.35;6.47;;;18.70;81.80;;;17.45;79.66;95781.97;4975035;28;20038;-66
2021/07/04 03:42:21;;;;;;;10.50;5.85;;;18.60;81.80;;;17.45;79.70;95772.16;4966530;28;20108;-65
2021/07/04 03:44:47;;;;;;;10.57;5.78;;;18.70;81.60;;;17.45;79.71;95782.78;4990653;28;20069;-66
2021/07/04 03:47:13;;;;;;;8.93;6.30;;;18.70;81.30;;;17.48;79.88;95776.19;4992323;28;20030;-65
2021/07/04 03:49:38;;;;;;;9.15;6.40;;;18.70;81.50;;;17.52;79.71;95771.19;4988055;28;20121;-65
2021/07/04 03:52:05;;;;;;;7.68;5.93;;;18.70;81.80;;;17.51;79.40;95769.56;5001052;28;20062;-65
2021/07/04 03:54:30;;;;;;;8.02;5.70;;;18.70;81.80;;;17.51;79.92;95770.38;5004731;28;20073;-66
2021/07/04 03:56:56;;;;;;;8.68;5.97;;;18.80;81.20;;;17.51;79.76;95767.72;5007304;28;20056;-65
2021/07/04 03:59:22;;;;;;;7.38;6.30;;;18.80;81.10;;;17.52;79.57;95771.97;5006741;28;20096;-65
2021/07/04 04:01:47;;;;;;;7.70;5.55;;;18.80;81.30;;;17.54;79.82;95769.88;4987192;28;20121;-66
2021/07/04 04:04:13;;;;;;;8.10;5.88;;;18.80;81.60;;;17.56;80.26;95770.44;5000282;28;20058;-66
2021/07/04 04:06:39;;;;;;;7.63;5.82;;;18.80;81.60;;;17.57;79.83;95774.72;5010400;28;20058;-65
2021/07/04 04:09:05;;;;;;;12.00;9.88;;;18.80;81.70;;;17.58;79.52;95765.69;4998849;28;20050;-65
2021/07/04 04:11:30;;;;;;;9.60;7.43;;;18.80;81.40;;;17.56;79.38;95767.78;5003163;28;20034;-66
2021/07/04 04:13:56;;;;;;;7.65;6.32;;;18.70;81.70;;;17.56;79.77;95783.75;4982318;28;20425;-65
2021/07/04 04:16:22;;;;;;;9.10;6.47;;;18.70;81.90;;;17.54;79.39;95775.22;5002765;28;20564;-65
2021/07/04 04:18:47;;;;;;;7.18;6.28;;;18.60;81.80;;;17.49;80.17;95769.81;5000921;28;20060;-66
2021/07/04 04:21:16;;;;;;;11.23;6.75;;;18.60;82.40;;;17.47;79.85;95771.91;4989736;28;20034;-65
2021/07/04 04:23:41;;;;;;;9.20;6.60;;;18.60;82.50;;;17.44;80.15;95770.53;4982697;28;20180;-65
2021/07/04 04:26:07;;;;;;;7.45;6.65;;;18.40;82.80;;;17.44;80.40;95775.03;5001565;28;20030;-65
2021/07/04 04:28:33;;;;;;;9.70;7.32;;;18.60;82.70;;;17.42;80.02;95777.09;4970380;28;20327;-65
2021/07/04 04:30:59;;;;;;;8.38;6.45;;;18.50;82.60;;;17.42;80.07;95779.78;4984280;28;20517;-65
2021/07/04 04:33:25;;;;;;;8.07;6.43;;;18.60;82.70;;;17.42;80.40;95774.44;4967609;28;20026;-66
2021/07/04 04:35:50;;;;;;;7.90;6.45;;;18.60;82.40;;;17.44;80.26;95769.72;4956308;28;20510;-65
2021/07/04 04:38:16;;;;;;;7.28;6.32;;;18.60;82.60;;;17.49;80.93;95764.50;4988233;28;20446;-66
2021/07/04 04:40:42;;;;;;;11.85;6.80;;;18.70;82.40;;;17.50;80.82;95774.06;5004329;28;20062;-67
2021/07/04 04:43:08;;;;;;;8.52;6.82;;;18.70;82.50;;;17.54;80.17;95769.09;4970798;28;20497;-65
2021/07/04 04:45:33;;;;;;;8.27;6.53;;;18.70;82.50;;;17.56;80.95;95770.44;5006950;28;20112;-65
2021/07/04 04:47:59;;;;;;;12.35;6.55;;;18.80;82.20;;;17.59;80.70;95767.31;4980024;28;20034;-65
2021/07/04 04:50:25;;;;;;;8.55;6.05;;;18.90;82.10;;;17.64;81.09;95763.91;4997058;28;20141;-65
2021/07/04 04:52:53;;;;;;;6.75;6.03;;;19.00;82.00;;;17.67;81.16;95758.13;4990974;28;20125;-65
2021/07/04 04:55:19;;;;;;;13.50;12.18;;;19.00;81.90;;;17.73;81.19;95767.84;5006214;28;20041;-66
2021/07/04 04:57:45;;;;;;;10.18;7.20;;;19.10;81.60;;;17.74;80.80;95762.28;4988977;28;20026;-64
2021/07/04 05:00:12;;;;;;;13.57;9.82;;;19.10;81.40;;;17.79;80.56;95766.88;4999732;28;20030;-65
2021/07/04 05:02:38;;;;;;;10.32;7.40;;;19.10;81.50;;;17.83;80.12;95767.19;4988763;28;20034;-65
2021/07/04 05:05:06;;;;;;;8.02;7.10;;;19.10;81.50;;;17.89;80.92;95771.56;4965599;28;20089;-65
2021/07/04 05:07:32;;;;;;;10.43;7.72;;;19.20;81.30;;;17.92;80.19;95765.75;5004319;28;20038;-65
2021/07/04 05:09:57;;;;;;;8.07;6.82;;;19.20;81.30;;;17.96;79.92;95772.19;4970809;28;20080;-65
2021/07/04 05:12:23;;;;;;;8.00;6.88;;;19.20;80.90;;;17.91;80.63;95764.13;5004285;28;20045;-65
2021/07/04 05:14:49;;;;;;;11.43;7.97;;;19.10;81.40;;;17.93;80.14;95772.69;4983041;28;20074;-67
2021/07/04 05:17:16;;;;;;;8.40;6.30;;;19.10;81.40;;;17.95;79.97;95757.28;4999167;28;20033;-67
2021/07/04 05:19:42;;;;;;;17.83;13.75;;;19.10;81.40;;;17.98;79.63;95764.75;4983492;28;20069;-70
2021/07/04 05:22:08;;;;;;;17.08;14.38;;;19.20;81.30;;;18.04;79.85;95766.44;4982038;28;20052;-66
2021/07/04 05:24:34;;;;;;;9.98;8.15;;;19.30;81.00;;;18.08;79.66;95769.41;5006193;28;20034;-71
2021/07/04 05:27:00;;;;;;;9.32;7.40;;;19.40;80.50;;;18.12;80.20;95768.72;4950763;28;20090;-69
2021/07/04 05:29:26;;;;;;;9.48;7.10;;;19.50;80.50;;;18.15;80.15;95764.75;4982781;28;20503;-71
2021/07/04 05:31:51;;;;;;;8.80;7.10;;;19.50;80.50;;;18.15;80.22;95762.09;4978379;28;20460;-70
2021/07/04 05:34:17;;;;;;;12.90;9.02;;;19.40;80.50;;;18.15;79.87;95760.25;4941083;28;20534;-70
2021/07/04 05:36:46;;;;;;;11.60;6.95;;;19.40;80.70;;;18.13;79.50;95762.34;4962756;28;20057;-68
2021/07/04 05:39:12;;;;;;;8.50;6.85;;;19.30;80.80;;;18.09;79.95;95755.88;4989895;28;20045;-71
2021/07/04 05:41:38;;;;;;;10.90;7.43;;;19.20;81.20;;;18.06;79.75;95751.03;4999696;28;20100;-65
2021/07/04 05:44:04;;;;;;;7.75;6.90;;;19.20;81.30;;;18.06;79.34;95756.34;4976087;28;20026;-66
2021/07/04 05:46:29;;;;;;;9.32;7.28;;;19.10;81.20;;;18.04;79.54;95759.25;4983239;28;20034;-66
2021/07/04 05:48:55;;;;;;;9.65;7.43;;;19.20;81.30;;;18.02;80.29;95749.91;4991128;28;20034;-66
2021/07/04 05:51:21;;;;;;;9.90;7.57;;;19.10;81.60;;;18.02;80.18;95760.56;5005116;28;20062;-66
2021/07/04 05:53:46;;;;;;;9.65;7.07;;;19.10;81.80;;;18.00;80.25;95754.69;5004798;28;20133;-66
2021/07/04 05:56:12;;;;;;;11.63;7.25;;;19.10;81.90;;;18.04;80.07;95753.13;4989297;28;20509;-66
2021/07/04 05:58:38;;;;;;;9.85;7.40;;;19.30;81.70;;;18.03;80.76;95757.66;4981974;28;20042;-66
2021/07/04 06:01:04;;;;;;;9.35;7.47;;;19.20;81.90;;;18.06;80.76;95754.50;5001324;28;20045;-66
2021/07/04 06:03:29;;;;;;;9.15;7.65;;;19.40;81.50;;;18.13;80.62;95753.56;5007324;28;20121;-67
2021/07/04 06:05:55;;;;;;;8.65;7.43;;;19.50;81.70;;;18.17;80.52;95757.31;4984480;28;20065;-67
2021/07/04 06:08:21;;;;;;;8.73;7.13;;;19.50;81.20;;;18.19;80.86;95749.91;4991897;28;20081;-67
2021/07/04 06:10:50;;;;;;;9.48;7.53;;;19.50;80.60;;;18.21;80.00;95742.47;4979099;28;20081;-67
2021/07/04 06:13:16;;;;;;;9.85;7.22;;;19.50;80.60;;;18.26;79.88;95746.00;4991027;28;20030;-66
2021/07/04 06:15:42;;;;;;;9.65;7.20;;;19.60;80.40;;;18.31;79.92;95759.38;4991985;28;20536;-66
2021/07/04 06:18:08;;;;;;;7.55;6.75;;;19.60;80.40;;;18.32;79.84;95745.00;4957049;28;20057;-66
2021/07/04 06:20:33;;;;;;;11.68;6.78;;;19.50;80.10;;;18.35;79.25;95747.22;4986861;28;20036;-66
2021/07/04 06:22:59;;;;;;;8.13;7.00;;;19.60;80.30;;;18.41;79.67;95744.59;4972123;28;20578;-66
2021/07/04 06:25:25;;;;;;;7.88;6.88;;;19.60;79.80;;;18.36;79.24;95748.81;4997373;28;20069;-69
2021/07/04 06:27:51;;;;;;;7.80;7.00;;;19.50;80.60;;;18.34;79.23;95744.78;4987482;28;20026;-67
2021/07/04 06:30:17;;;;;;;6.82;6.13;;;19.50;80.70;;;18.32;79.18;95750.34;4976607;28;20113;-72
2021/07/04 06:32:43;;;;;;;9.25;7.38;;;19.40;80.70;;;18.28;79.70;95749.22;5003680;28;20489;-72
2021/07/04 06:35:10;;;;;;;7.90;6.72;;;19.30;80.80;;;18.24;79.73;95742.78;4957938;28;20125;-73
2021/07/04 06:37:36;;;;;;;8.05;6.30;;;19.40;81.30;;;18.25;79.52;95744.41;4972124;28;20027;-72
2021/07/04 06:40:03;;;;;;;8.77;6.47;;;19.50;80.80;;;18.26;79.35;95743.34;5005000;28;20129;-72
2021/07/04 06:42:29;;;;;;;6.72;5.57;;;19.50;80.70;;;18.30;79.38;95747.13;4983193;28;20145;-71
2021/07/04 06:44:55;;;;;;;6.50;5.30;;;19.60;79.90;;;18.34;79.76;95742.13;4992216;28;20062;-71
2021/07/04 06:47:21;;;;;;;5.78;5.20;;;19.70;79.50;;;18.41;78.87;95752.59;4991344;28;20022;-66
2021/07/04 06:49:46;;;;;;;5.95;5.18;;;19.80;79.00;;;18.46;79.23;95734.81;4970924;28;20282;-67
2021/07/04 06:52:12;;;;;;;8.88;5.65;;;19.80;78.20;;;18.48;78.11;95742.56;5001717;28;20067;-65
2021/07/04 06:54:38;;;;;;;6.57;5.53;;;19.70;78.60;;;18.52;79.02;95738.34;4986551;28;20541;-69
2021/07/04 06:59:48;;;;;;;6.35;4.90;;;19.70;78.70;;;18.52;78.35;95738.34;4984833;28;20068;-70
2021/07/04 07:02:14;;;;;;;7.07;5.40;;;19.80;78.90;;;18.56;77.97;95739.47;4990718;28;20089;-69
2021/07/04 07:04:39;;;;;;;6.40;4.82;;;19.90;78.70;;;18.60;77.97;95740.59;4992855;28;20030;-69
2021/07/04 07:07:05;;;;;;;6.60;4.80;;;19.90;78.30;;;18.64;77.80;95741.72;4994072;28;20406;-70
2021/07/04 07:09:31;;;;;;;7.30;5.15;;;20.00;78.50;;;18.64;78.22;95741.72;4966942;28;20062;-67
2021/07/04 07:11:57;;;;;;;5.82;5.22;;;19.80;78.70;;;18.65;78.11;95738.00;4975871;28;20450;-68
2021/07/04 07:14:23;;;;;;;5.43;4.07;;;20.00;78.70;;;18.71;77.94;95737.00;4994935;28;20092;-69
2021/07/04 07:16:49;;;;;;;6.57;5.50;;;20.10;77.70;;;18.75;77.46;95738.13;4992107;28;20133;-63
2021/07/04 07:19:15;;;;;;;5.93;5.10;;;20.10;76.20;;;18.80;76.89;95726.75;4984394;28;20034;-67
2021/07/04 07:21:41;;;;;;;4.60;3.97;;;20.10;75.80;;;18.86;76.32;95729.22;4990072;28;20061;-67
2021/07/04 07:24:08;;;;;;;6.75;4.18;;;20.20;76.00;;;18.92;76.82;95730.06;4991728;28;20037;-66
2021/07/04 07:26:34;;;;;;;4.28;3.72;;;20.30;76.00;;;18.97;75.76;95736.25;4962665;28;20033;-66
2021/07/04 07:29:00;;;;;;;3.47;2.80;;;20.40;75.70;;;19.02;76.28;95730.19;4977923;28;20121;-67
2021/07/04 07:31:26;;;;;;;4.32;3.65;;;20.50;75.30;;;19.11;76.16;95719.88;4960549;28;20410;-67
2021/07/04 07:33:51;;;;;;;4.68;3.45;;;20.60;75.50;;;19.22;75.47;95732.22;4960998;28;20066;-67
2021/07/04 07:36:17;;;;;;;4.93;4.10;;;20.90;75.00;;;19.37;76.81;95726.25;4974217;28;20069;-66
2021/07/04 07:38:43;;;;;;;2.42;2.22;;;21.30;74.70;;;19.48;74.99;95726.09;4983942;28;20113;-66
2021/07/04 07:41:09;;;;;;;1.95;1.75;;;21.10;70.00;;;19.56;74.24;95722.97;4987151;28;20084;-69
2021/07/04 07:43:35;;;;;;;4.10;2.70;;;21.30;69.20;;;19.68;73.99;95713.97;4973379;28;20030;-67
2021/07/04 07:46:00;;;;;;;2.88;1.98;;;21.50;70.70;;;19.77;72.26;95718.59;4975259;28;20034;-66
2021/07/04 07:48:26;;;;;;;5.53;4.80;;;21.60;68.50;;;19.83;72.56;95708.75;5001232;28;20069;-69
2021/07/04 07:50:52;;;;;;;5.82;4.82;;;21.60;69.50;;;19.90;72.71;95717.34;4975993;28;20034;-68
2021/07/04 07:53:18;;;;;;;4.05;2.15;;;21.60;69.80;;;19.95;72.19;95714.72;4967349;28;20030;-68
2021/07/04 07:55:43;;;;;;;2.50;2.05;;;21.60;70.10;;;19.99;73.08;95707.00;4975175;28;20030;-68
2021/07/04 07:58:09;;;;;;;3.45;2.00;;;21.70;70.00;;;20.01;72.70;95710.22;4987522;28;20036;-68
2021/07/04 08:00:35;;;;;;;2.55;1.85;;;21.70;69.20;;;20.06;72.25;95695.03;4993014;28;20100;-69
2021/07/04 08:03:01;;;;;;;2.88;2.03;;;21.90;69.30;;;20.16;71.55;95689.75;4981240;28;20129;-67
2021/07/04 08:05:26;;;;;;;3.88;2.75;;;22.10;68.00;;;20.36;72.35;95694.38;5008785;28;20050;-69
2021/07/04 08:07:52;;;;;;;4.57;3.63;;;22.60;67.70;;;20.64;71.49;95684.38;4972713;28;20026;-68
2021/07/04 08:10:18;;;;;;;3.15;2.65;;;23.10;64.50;;;20.91;70.54;95689.53;5008448;28;20490;-70
2021/07/04 08:12:44;;;;;;;5.63;2.58;;;23.40;63.70;;;21.21;70.62;95689.59;4961417;28;20035;-68
2021/07/04 08:15:10;;;;;;;3.85;2.47;;;23.90;64.10;;;21.52;70.51;95685.09;4974880;28;20037;-67
2021/07/04 08:17:36;;;;;;;2.80;2.50;;;24.20;63.20;;;21.85;69.80;95683.72;4960848;28;20038;-68
2021/07/04 08:20:03;;;;;;;2.60;2.20;;;24.50;62.20;;;22.11;69.06;95689.06;4974637;28;20525;-68
2021/07/04 08:22:29;;;;;;;5.38;2.25;;;24.60;59.70;;;22.29;68.44;95689.28;4997643;28;20030;-68
2021/07/04 08:24:55;;;;;;;7.30;3.05;;;24.60;60.90;;;22.37;67.71;95682.56;4968061;28;20133;-69
2021/07/04 08:27:21;;;;;;;3.50;2.88;;;24.20;61.00;;;22.34;66.64;95685.00;4991793;28;20414;-70
2021/07/04 08:29:46;;;;;;;4.65;2.50;;;24.00;60.30;;;22.32;66.53;95685.25;4990035;28;20588;-69
2021/07/04 08:32:12;;;;;;;9.38;7.43;;;23.90;60.40;;;22.35;66.61;95670.50;4993594;28;20037;-69
2021/07/04 08:34:38;;;;;;;8.27;5.85;;;24.10;61.30;;;22.34;65.59;95675.06;4970446;28;20136;-69
2021/07/04 08:37:04;;;;;;;5.25;4.05;;;23.90;59.70;;;22.39;65.37;95669.69;5005772;28;20084;-68
2021/07/04 08:39:31;;;;;;;3.72;3.13;;;24.10;60.20;;;22.37;64.84;95652.28;4970735;28;20545;-70
2021/07/04 08:41:57;;;;;;;5.95;3.00;;;24.00;59.60;;;22.35;65.04;95649.88;4991765;28;20029;-71
2021/07/04 08:44:23;;;;;;;4.90;3.05;;;24.10;60.40;;;22.39;65.12;95640.22;5004706;28;20130;-68
2021/07/04 08:46:49;;;;;;;4.60;4.07;;;24.30;59.10;;;22.53;64.84;95629.72;5008962;28;20053;-68
2021/07/04 08:49:15;;;;;;;6.68;5.97;;;24.70;60.30;;;22.71;64.57;95628.28;4978847;28;20108;-69
2021/07/04 08:51:41;;;;;;;7.43;6.60;;;25.20;58.70;;;22.95;65.00;95634.59;4976908;28;20467;-69
2021/07/04 08:54:07;;;;;;;5.80;4.28;;;25.40;57.80;;;23.15;63.15;95642.50;4973738;28;20129;-70
2021/07/04 08:56:33;;;;;;;4.82;2.88;;;25.50;55.40;;;23.22;63.52;95640.31;4967061;28;20030;-70
2021/07/04 08:58:59;;;;;;;6.95;5.90;;;25.20;55.50;;;23.36;62.87;95643.16;4988149;28;20125;-67
2021/07/04 09:01:25;;;;;;;3.33;2.72;;;25.90;54.40;;;23.70;62.58;95645.03;5009303;28;20090;-68
2021/07/04 09:03:56;;;;;;;2.78;2.05;;;26.80;53.60;;;24.22;61.29;95633.50;4990770;28;20034;-68
2021/07/04 09:06:43;;;;;;;7.68;6.60;;;27.40;51.50;;;24.66;60.32;95643.19;4993920;28;20022;-73
2021/07/04 09:09:23;;;;;;;4.75;3.97;;;27.70;52.70;;;25.04;56.88;95631.38;4989039;28;20034;-68
2021/07/04 09:12:10;;;;;;;7.10;5.55;;;28.40;47.20;;;25.36;56.93;95627.16;4991793;28;20044;-69
2021/07/04 09:14:39;;;;;;;5.30;4.80;;;28.30;48.60;;;25.44;56.13;95636.44;4972811;28;20677;-70
2021/07/04 09:17:10;;;;;;;4.30;3.13;;;28.00;47.10;;;25.50;54.55;95633.34;5007142;28;20153;-68
2021/07/04 09:19:54;;;;;;;2.95;2.17;;;28.00;47.00;;;25.67;55.49;95626.63;4968620;28;20105;-70
2021/07/04 09:22:28;;;;;;;3.25;2.15;;;28.40;48.00;;;25.77;55.16;95629.97;4974875;28;20084;-70
2021/07/04 09:24:54;;;;;;;3.17;2.35;;;28.10;48.70;;;25.76;57.29;95617.59;4977971;28;20030;-69
2021/07/04 09:27:20;;;;;;;3.80;2.20;;;28.10;49.00;;;25.94;56.44;95624.81;4987966;28;20172;-71
2021/07/04 09:29:50;;;;;;;3.35;2.75;;;28.80;47.00;;;26.20;53.92;95618.91;4982224;28;20039;-71
2021/07/04 09:32:17;;;;;;;3.75;3.13;;;29.20;45.80;;;26.52;55.28;95623.44;4973145;28;20088;-71
2021/07/04 09:35:11;;;;;;;3.13;2.65;;;29.70;44.20;;;26.84;52.17;95615.19;4989999;28;20042;-69
2021/07/04 09:37:45;;;;;;;2.72;2.10;;;30.00;44.00;;;27.12;51.35;95628.63;4979947;28;20584;-70
2021/07/04 09:40:21;;;;;;;2.45;2.10;;;30.00;43.60;;;27.34;52.28;95625.13;4966219;28;20041;-72
2021/07/04 09:43:07;;;;;;;5.07;3.25;;;30.60;43.20;;;27.74;49.18;95624.16;4993419;28;20386;-67
2021/07/04 09:45:50;;;;;;;5.32;4.50;;;31.20;41.40;;;27.85;48.81;95632.03;4995670;28;20489;-67
2021/07/04 09:48:28;;;;;;;3.90;2.20;;;30.80;40.90;;;27.85;48.69;95615.81;4991227;28;20552;-66
2021/07/04 09:50:59;;;;;;;3.15;2.20;;;30.80;41.30;;;27.99;50.26;95617.28;5005763;28;20030;-67
2021/07/04 09:53:48;;;;;;;3.40;1.63;;;30.80;43.30;;;27.98;47.84;95617.59;4996346;28;20026;-71
2021/07/04 09:56:19;;;;;;;2.00;1.80;;;30.50;40.60;;;27.97;48.34;95613.31;4989818;28;20034;-69
2021/07/04 09:58:48;;;;;;;2.90;1.90;;;30.30;40.70;;;27.94;48.58;95603.13;5005301;28;20038;-68
2021/07/04 10:01:35;;;;;;;2.92;2.10;;;30.10;41.40;;;27.85;47.10;95616.59;4984926;28;20030;-70
2021/07/04 10:04:04;;;;;;;2.60;1.90;;;30.10;41.80;;;27.84;49.43;95614.19;4977826;28;20170;-69
2021/07/04 10:06:50;;;;;;;3.30;2.05;;;30.10;42.30;;;27.74;47.50;95605.25;4969401;28;20396;-69
2021/07/04 10:09:18;;;;;;;3.90;2.15;;;30.10;42.10;;;27.56;48.00;95608.91;5006530;28;20206;-72
2021/07/04 10:11:44;;;;;;;2.63;2.22;;;29.60;42.30;;;27.43;49.93;95609.81;4983765;28;20030;-68
2021/07/04 10:14:10;;;;;;;3.28;1.85;;;29.30;44.00;;;27.21;50.05;95613.31;4987836;28;20037;-70
2021/07/04 10:16:35;;;;;;;3.33;2.42;;;29.20;43.80;;;27.05;49.96;95602.06;4970084;28;20039;-73
2021/07/04 10:19:02;;;;;;;8.80;2.53;;;29.10;44.70;;;26.90;49.79;95590.78;4985451;28;20179;-73